Terminal Aerodrome Forecast
Issued by NWS Charleston, SC

Current Version | Previous Version | Text Only | Print | Product List | Glossary On
Versions: 1 2 3 4 5 6 7 8 9 10 11 12 13 14 15 16 17 18
000
FTUS42 KCHS 021700 CCA
TAFCHS
TAF COR
KCHS 021740Z 0218/0318 14008KT P6SM FEW045
     FM030000 15003KT P6SM SKC
     FM030900 VRB02KT 6SM BR FEW250
     FM031300 20007KT P6SM SCT035 SCT150=

USA.gov is the U.S. government's official web portal to all federal, state and local government web resources and services.